createdAt,value
2023-03-21T00:02:02.722Z,11.56
2023-03-21T00:04:44.581Z,11.45
2023-03-21T00:07:20.346Z,11.29
2023-03-21T00:09:48.891Z,11.18
2023-03-21T00:12:17.460Z,11.17
2023-03-21T00:14:46.543Z,11.18
2023-03-21T00:17:16.226Z,11.18
2023-03-21T00:19:46.703Z,11.20
2023-03-21T00:22:16.225Z,11.21
2023-03-21T00:24:45.644Z,11.19
2023-03-21T00:27:39.755Z,11.16
2023-03-21T00:30:05.203Z,11.12
2023-03-21T00:32:37.508Z,11.02
2023-03-21T00:35:47.981Z,10.96
2023-03-21T00:37:58.111Z,10.92
2023-03-21T00:40:33.045Z,10.87
2023-03-21T00:43:03.992Z,10.92
2023-03-21T00:45:35.695Z,10.94
2023-03-21T00:48:05.872Z,10.83
2023-03-21T00:50:34.993Z,10.76
2023-03-21T00:53:04.592Z,10.76
2023-03-21T00:55:33.492Z,10.73
2023-03-21T00:58:02.724Z,10.67
2023-03-21T01:00:33.636Z,10.65
2023-03-21T01:03:17.620Z,10.68
2023-03-21T01:06:07.724Z,10.68
2023-03-21T01:08:54.818Z,10.66
2023-03-21T01:11:27.128Z,10.64
2023-03-21T01:14:07.277Z,10.64
2023-03-21T01:16:40.069Z,10.67
2023-03-21T01:19:22.110Z,10.67
2023-03-21T01:21:54.011Z,10.68
2023-03-21T01:24:24.010Z,10.69
2023-03-21T01:26:52.607Z,10.67
2023-03-21T01:29:22.212Z,10.63
2023-03-21T01:31:51.045Z,10.60
2023-03-21T01:34:19.704Z,10.54
2023-03-21T01:36:49.303Z,10.48
2023-03-21T01:39:21.877Z,10.47
2023-03-21T01:41:52.274Z,10.46
2023-03-21T01:44:24.017Z,10.46
2023-03-21T01:47:09.196Z,10.48
2023-03-21T01:49:46.573Z,10.47
2023-03-21T01:52:38.892Z,10.50
2023-03-21T01:55:14.282Z,10.55
2023-03-21T01:58:09.548Z,10.65
2023-03-21T02:01:03.058Z,10.71
2023-03-21T02:03:51.069Z,10.73
2023-03-21T02:06:38.137Z,10.72
2023-03-21T02:09:17.108Z,10.72
2023-03-21T02:11:47.341Z,10.79
2023-03-21T02:14:28.418Z,10.85
2023-03-21T02:17:30.092Z,10.86
2023-03-21T02:20:33.667Z,10.86
2023-03-21T02:23:24.695Z,10.85
2023-03-21T02:26:36.148Z,10.83
2023-03-21T02:29:12.707Z,10.80
2023-03-21T02:32:18.194Z,10.76
2023-03-21T02:34:59.762Z,10.69
2023-03-21T02:37:38.302Z,10.67
2023-03-21T02:40:18.578Z,10.64
2023-03-21T02:43:01.424Z,10.57
2023-03-21T02:46:04.548Z,10.46
2023-03-21T02:48:50.245Z,10.35
2023-03-21T02:51:23.945Z,10.32
2023-03-21T02:54:26.117Z,10.31
2023-03-21T02:56:50.339Z,10.32
2023-03-21T02:59:21.828Z,10.33
2023-03-21T03:01:53.201Z,10.36
2023-03-21T03:04:25.463Z,10.39
2023-03-21T03:07:13.262Z,10.41
2023-03-21T03:09:52.350Z,10.44
2023-03-21T03:12:26.842Z,10.46
2023-03-21T03:15:04.521Z,10.52
2023-03-21T03:17:48.138Z,10.54
2023-03-21T03:20:29.418Z,10.52
2023-03-21T03:23:19.607Z,10.52
2023-03-21T03:26:04.604Z,10.56
2023-03-21T03:28:41.946Z,10.57
2023-03-21T03:31:22.391Z,10.64
2023-03-21T03:33:58.127Z,10.70
2023-03-21T03:36:37.713Z,10.69
2023-03-21T03:39:12.134Z,10.68
2023-03-21T03:42:15.387Z,10.64
2023-03-21T03:44:57.811Z,10.51
2023-03-21T03:47:56.410Z,10.41
2023-03-21T03:50:29.609Z,10.37
2023-03-21T03:53:16.201Z,10.39
2023-03-21T03:55:48.588Z,10.39
2023-03-21T03:58:23.910Z,10.36
2023-03-21T04:00:55.502Z,10.38
2023-03-21T04:03:25.424Z,10.40
2023-03-21T04:05:54.306Z,10.40
2023-03-21T04:08:23.635Z,10.41
2023-03-21T04:10:55.534Z,10.44
2023-03-21T04:13:24.644Z,10.44
2023-03-21T04:16:14.992Z,10.45
2023-03-21T04:18:44.098Z,10.43
2023-03-21T04:21:13.783Z,10.39
2023-03-21T04:23:43.257Z,10.38
2023-03-21T04:26:11.855Z,10.37
2023-03-21T04:28:45.915Z,10.36
2023-03-21T04:31:36.361Z,10.34
2023-03-21T04:34:12.936Z,10.30
2023-03-21T04:36:49.748Z,10.26
2023-03-21T04:39:18.886Z,10.22
2023-03-21T04:41:50.194Z,10.24
2023-03-21T04:44:18.823Z,10.28
2023-03-21T04:46:48.672Z,10.31
2023-03-21T04:49:19.269Z,10.38
2023-03-21T04:51:47.902Z,10.41
2023-03-21T04:54:21.678Z,10.30
2023-03-21T04:56:52.349Z,10.20
2023-03-21T04:59:21.795Z,10.17
2023-03-21T05:01:51.561Z,10.20
2023-03-21T05:04:20.366Z,10.17
2023-03-21T05:06:49.062Z,10.13
2023-03-21T05:09:18.434Z,10.09
2023-03-21T05:11:47.007Z,10.08
2023-03-21T05:14:20.830Z,10.04
2023-03-21T05:16:53.886Z,10.01
2023-03-21T05:19:35.620Z,10.03
2023-03-21T05:22:09.030Z,10.07
2023-03-21T05:24:42.248Z,10.08
2023-03-21T05:27:36.164Z,10.11
2023-03-21T05:30:17.657Z,10.09
2023-03-21T05:32:48.262Z,10.10
2023-03-21T05:35:17.435Z,10.11
2023-03-21T05:37:45.986Z,10.13
2023-03-21T05:40:15.373Z,10.12
2023-03-21T05:42:47.377Z,10.05
2023-03-21T05:45:23.271Z,9.96
2023-03-21T05:47:52.665Z,9.91
2023-03-21T05:50:23.232Z,9.88
2023-03-21T05:53:04.473Z,9.89
2023-03-21T05:55:35.052Z,9.86
2023-03-21T05:58:05.941Z,9.87
2023-03-21T06:00:34.684Z,9.90
2023-03-21T06:03:19.084Z,9.97
2023-03-21T06:06:23.390Z,10.02
2023-03-21T06:08:57.017Z,10.00
2023-03-21T06:11:29.839Z,9.96
2023-03-21T06:14:17.359Z,9.94
2023-03-21T06:16:46.456Z,9.95
2023-03-21T06:19:16.083Z,9.93
2023-03-21T06:22:06.747Z,9.91
2023-03-21T06:24:36.612Z,9.92
2023-03-21T06:27:05.946Z,9.92
2023-03-21T06:29:47.040Z,9.92
2023-03-21T06:32:16.526Z,9.93
2023-03-21T06:34:45.586Z,9.93
2023-03-21T06:37:17.080Z,9.97
2023-03-21T06:39:47.267Z,10.02
2023-03-21T06:42:16.169Z,10.01
2023-03-21T06:44:45.072Z,10.01
2023-03-21T06:47:16.602Z,10.02
2023-03-21T06:49:46.350Z,10.01
2023-03-21T06:52:14.800Z,10.02
2023-03-21T06:54:43.704Z,10.04
2023-03-21T06:57:14.652Z,10.10
2023-03-21T06:59:43.260Z,10.13
2023-03-21T07:02:17.292Z,10.17
2023-03-21T07:05:06.574Z,10.20
2023-03-21T07:07:35.232Z,10.22
2023-03-21T07:10:04.443Z,10.25
2023-03-21T07:12:37.524Z,10.26
2023-03-21T07:15:41.689Z,10.24
2023-03-21T07:18:10.970Z,10.20
2023-03-21T07:20:39.352Z,10.23
2023-03-21T07:23:07.877Z,10.27
2023-03-21T07:25:37.718Z,10.27
2023-03-21T07:28:09.729Z,10.25
2023-03-21T07:30:38.707Z,10.23
2023-03-21T07:33:08.031Z,10.25
2023-03-21T07:35:37.921Z,10.30
2023-03-21T07:38:08.208Z,10.35
2023-03-21T07:40:37.758Z,10.42
2023-03-21T07:43:06.864Z,10.50
2023-03-21T07:45:36.885Z,10.63
2023-03-21T07:48:07.817Z,10.71
2023-03-21T07:50:37.327Z,10.81
2023-03-21T07:53:09.208Z,10.90
2023-03-21T07:55:38.021Z,11.04
2023-03-21T07:58:06.856Z,11.13
2023-03-21T08:00:35.918Z,11.20
2023-03-21T08:03:04.822Z,11.32
2023-03-21T08:05:38.530Z,11.43
2023-03-21T08:08:07.673Z,11.61
2023-03-21T08:10:36.679Z,11.73
2023-03-21T08:13:05.220Z,11.80
2023-03-21T08:15:34.311Z,11.87
2023-03-21T08:18:02.744Z,11.93
2023-03-21T08:20:31.776Z,11.98
2023-03-21T08:23:00.864Z,12.04
2023-03-21T08:25:29.216Z,12.12
2023-03-21T08:27:57.934Z,12.16
2023-03-21T08:30:27.521Z,12.23
2023-03-21T08:33:00.663Z,12.22
2023-03-21T08:35:30.956Z,12.18
2023-03-21T08:37:59.344Z,12.18
2023-03-21T08:40:27.930Z,12.19
2023-03-21T08:42:57.222Z,12.17
2023-03-21T08:45:27.298Z,12.17
2023-03-21T08:47:56.558Z,12.28
2023-03-21T08:50:28.500Z,12.42
2023-03-21T08:52:57.023Z,12.60
2023-03-21T08:55:25.858Z,12.77
2023-03-21T08:57:55.061Z,12.90
2023-03-21T09:00:24.018Z,13.04
2023-03-21T09:02:54.920Z,13.02
2023-03-21T09:05:23.763Z,12.89
2023-03-21T09:07:53.123Z,12.70
2023-03-21T09:10:23.245Z,12.59
2023-03-21T09:12:52.982Z,12.55
2023-03-21T09:15:24.986Z,12.58
2023-03-21T09:17:57.339Z,12.55
2023-03-21T09:20:31.424Z,12.49
2023-03-21T09:23:02.179Z,12.51
2023-03-21T09:25:31.920Z,12.52
2023-03-21T09:28:00.811Z,12.51
2023-03-21T09:30:30.616Z,12.49
2023-03-21T09:32:59.928Z,12.47
2023-03-21T09:35:28.589Z,12.50
2023-03-21T09:38:09.387Z,12.51
2023-03-21T09:40:54.064Z,12.51
2023-03-21T09:43:41.779Z,12.51
2023-03-21T09:46:10.518Z,12.47
2023-03-21T09:49:11.852Z,12.36
2023-03-21T09:51:41.680Z,12.33
2023-03-21T09:54:18.198Z,12.23
2023-03-21T09:56:47.957Z,12.25
2023-03-21T09:59:22.808Z,12.31
2023-03-21T10:01:51.796Z,12.41
2023-03-21T10:16:16.117Z,13.06
2023-03-21T10:18:45.140Z,13.44
2023-03-21T10:21:45.891Z,13.52
2023-03-21T10:24:14.339Z,13.59
2023-03-21T10:26:44.547Z,13.58
2023-03-21T10:29:16.908Z,13.56
2023-03-21T10:31:48.010Z,13.65
2023-03-21T10:34:22.672Z,13.75
2023-03-21T10:36:51.827Z,13.80
2023-03-21T10:39:37.365Z,13.90
2023-03-21T10:42:07.063Z,14.00
2023-03-21T10:44:36.673Z,14.16
2023-03-21T10:47:10.166Z,14.28
2023-03-21T10:50:05.842Z,14.37
2023-03-21T10:52:32.779Z,14.50
2023-03-21T10:55:21.767Z,14.62
2023-03-21T10:57:56.210Z,14.76
2023-03-21T11:00:30.460Z,14.88
2023-03-21T11:03:01.120Z,14.86
2023-03-21T11:05:40.166Z,14.84
2023-03-21T11:08:16.686Z,14.77
2023-03-21T11:11:04.549Z,14.63
2023-03-21T11:13:42.873Z,14.50
2023-03-21T11:16:41.480Z,14.39
2023-03-21T11:19:19.926Z,14.22
2023-03-21T11:21:48.894Z,14.05
2023-03-21T11:24:19.201Z,13.95
2023-03-21T11:26:51.797Z,13.83
2023-03-21T11:29:31.363Z,13.76
2023-03-21T11:32:12.166Z,13.72
2023-03-21T11:34:51.004Z,13.73
2023-03-21T11:37:32.756Z,13.65
2023-03-21T11:40:26.005Z,13.55
2023-03-21T11:43:25.415Z,13.56
2023-03-21T11:46:06.408Z,13.62
2023-03-21T11:48:49.274Z,13.61
2023-03-21T11:51:18.415Z,13.64
2023-03-21T11:53:58.258Z,13.70
2023-03-21T11:56:33.643Z,13.67
2023-03-21T11:59:13.908Z,13.63
2023-03-21T12:01:45.823Z,13.55
2023-03-21T12:04:19.093Z,13.54
2023-03-21T12:06:55.466Z,13.56
2023-03-21T12:09:39.103Z,13.49
2023-03-21T12:12:48.244Z,13.46
2023-03-21T12:15:42.166Z,13.44
2023-03-21T12:18:36.315Z,13.38
2023-03-21T12:21:20.644Z,13.38
2023-03-21T12:24:08.288Z,13.39
2023-03-21T12:26:49.081Z,13.39
2023-03-21T12:29:48.096Z,13.30
2023-03-21T12:32:40.993Z,13.28
2023-03-21T12:35:32.970Z,13.31
2023-03-21T12:38:08.569Z,13.32
2023-03-21T12:40:41.203Z,13.25
2023-03-21T12:43:28.655Z,13.20
2023-03-21T12:46:03.997Z,13.16
2023-03-21T12:48:42.034Z,13.16
2023-03-21T12:51:16.915Z,13.21
2023-03-21T12:54:02.323Z,13.19
2023-03-21T12:56:59.927Z,13.10
2023-03-21T13:00:09.429Z,13.11
2023-03-21T13:02:43.855Z,13.15
2023-03-21T13:05:23.110Z,13.20
2023-03-21T13:08:07.064Z,13.19
2023-03-21T13:10:36.830Z,13.21
2023-03-21T13:13:32.024Z,13.17
2023-03-21T13:16:25.937Z,13.14
2023-03-21T13:19:03.025Z,13.17
2023-03-21T13:21:47.059Z,13.16
2023-03-21T13:24:44.164Z,13.22
2023-03-21T13:27:29.509Z,13.30
2023-03-21T13:30:02.695Z,13.27
2023-03-21T13:32:41.359Z,13.29
2023-03-21T13:35:27.924Z,13.29
2023-03-21T13:38:05.449Z,13.36
2023-03-21T13:40:52.662Z,13.41
2023-03-21T13:43:44.273Z,13.43
2023-03-21T13:46:54.050Z,13.46
2023-03-21T13:49:27.955Z,13.40
2023-03-21T13:51:59.029Z,13.39
2023-03-21T13:54:45.579Z,13.40
2023-03-21T13:57:33.578Z,13.44
2023-03-21T14:00:27.858Z,13.48
2023-03-21T14:02:59.918Z,13.46
2023-03-21T14:05:29.965Z,13.51
2023-03-21T14:08:12.728Z,13.49
2023-03-21T14:10:47.622Z,13.37
2023-03-21T14:13:23.160Z,13.31
2023-03-21T14:15:56.703Z,13.34
2023-03-21T14:18:51.646Z,13.37
2023-03-21T14:21:25.600Z,13.33
2023-03-21T14:24:18.435Z,13.33
2023-03-21T14:26:54.164Z,13.37
2023-03-21T14:29:33.591Z,13.37
2023-03-21T14:32:04.742Z,13.36
2023-03-21T14:34:36.045Z,13.32
2023-03-21T14:37:08.635Z,13.33
2023-03-21T14:39:37.762Z,13.28
2023-03-21T14:42:10.195Z,13.19
2023-03-21T14:44:54.060Z,13.14
2023-03-21T14:47:29.861Z,13.12
2023-03-21T14:50:01.379Z,13.08
2023-03-21T14:52:33.692Z,13.03
2023-03-21T14:55:12.164Z,13.02
2023-03-21T14:57:41.340Z,13.05
2023-03-21T15:00:19.581Z,13.02
2023-03-21T15:02:48.596Z,12.94
2023-03-21T15:05:33.648Z,12.87
2023-03-21T15:08:16.806Z,12.88
2023-03-21T15:11:07.204Z,12.93
2023-03-21T15:13:50.844Z,12.95
2023-03-21T15:16:20.763Z,12.93
2023-03-21T15:18:50.980Z,12.97
2023-03-21T15:21:30.696Z,13.07
2023-03-21T15:24:32.010Z,13.21
2023-03-21T15:27:05.897Z,13.20
2023-03-21T15:29:37.687Z,13.08
2023-03-21T15:32:17.100Z,12.97
2023-03-21T15:34:46.883Z,12.86
2023-03-21T15:37:24.510Z,12.75
2023-03-21T15:39:54.854Z,12.65
2023-03-21T15:42:27.780Z,12.63
2023-03-21T15:45:01.536Z,12.64
2023-03-21T15:47:51.844Z,12.64
2023-03-21T15:50:34.647Z,12.64
2023-03-21T15:53:08.345Z,12.61
2023-03-21T15:55:48.503Z,12.62
2023-03-21T15:58:20.966Z,12.58
2023-03-21T16:00:55.816Z,12.55
2023-03-21T16:04:06.472Z,12.57
2023-03-21T16:06:37.622Z,12.48
2023-03-21T16:09:09.600Z,12.43
2023-03-21T16:11:53.259Z,12.44
2023-03-21T16:14:23.225Z,12.46
2023-03-21T16:16:53.262Z,12.46
2023-03-21T16:19:21.784Z,12.42
2023-03-21T16:21:54.321Z,12.37
2023-03-21T16:24:25.417Z,12.34
2023-03-21T16:26:55.493Z,12.33
2023-03-21T16:29:24.324Z,12.27
2023-03-21T16:31:53.561Z,12.23
2023-03-21T16:34:22.584Z,12.21
2023-03-21T16:36:51.084Z,12.14
2023-03-21T16:39:22.706Z,12.08
2023-03-21T16:41:52.023Z,12.07
2023-03-21T16:44:21.340Z,12.12
2023-03-21T16:46:49.944Z,12.16
2023-03-21T16:49:24.781Z,12.17
2023-03-21T16:51:56.502Z,12.17
2023-03-21T16:54:25.112Z,12.17
2023-03-21T16:56:56.074Z,12.16
2023-03-21T16:59:25.486Z,12.12
2023-03-21T17:01:54.135Z,12.04
2023-03-21T17:04:24.947Z,11.98
2023-03-21T17:06:55.762Z,11.95
2023-03-21T17:09:29.644Z,11.89
2023-03-21T17:11:58.686Z,11.80
2023-03-21T17:14:27.488Z,11.71
2023-03-21T17:16:56.241Z,11.68
2023-03-21T17:19:26.622Z,11.65
2023-03-21T17:21:55.812Z,11.64
2023-03-21T17:24:26.944Z,11.62
2023-03-21T17:26:56.472Z,11.56
2023-03-21T17:29:25.070Z,11.52
2023-03-21T17:31:54.480Z,11.50
2023-03-21T17:34:23.603Z,11.50
2023-03-21T17:36:52.165Z,11.52
2023-03-21T17:39:24.293Z,11.51
2023-03-21T17:41:54.044Z,11.51
2023-03-21T17:44:22.899Z,11.53
2023-03-21T17:46:52.163Z,11.51
2023-03-21T17:49:21.537Z,11.46
2023-03-21T17:51:50.706Z,11.44
2023-03-21T17:54:19.575Z,11.40
2023-03-21T17:56:51.125Z,11.38
2023-03-21T17:59:20.042Z,11.35
2023-03-21T18:01:49.351Z,11.33
2023-03-21T18:04:40.138Z,11.31
2023-03-21T18:08:05.922Z,11.31
2023-03-21T18:10:42.798Z,11.37
2023-03-21T18:13:32.262Z,11.43
2023-03-21T18:16:28.542Z,11.44
2023-03-21T18:19:20.731Z,11.45
2023-03-21T18:22:11.770Z,11.44
2023-03-21T18:24:57.769Z,11.47
2023-03-21T18:28:09.522Z,11.43
2023-03-21T18:31:11.464Z,11.44
2023-03-21T18:34:08.531Z,11.42
2023-03-21T18:36:57.857Z,11.34
2023-03-21T18:39:38.846Z,11.30
2023-03-21T18:42:07.825Z,11.29
2023-03-21T18:44:46.077Z,11.28
2023-03-21T18:47:15.141Z,11.30
2023-03-21T18:52:33.402Z,11.30
2023-03-21T18:55:15.785Z,11.25
2023-03-21T18:58:07.220Z,11.24
2023-03-21T19:00:59.164Z,11.17
2023-03-21T19:04:21.477Z,11.14
2023-03-21T19:07:15.519Z,11.19
2023-03-21T19:10:17.592Z,11.18
2023-03-21T19:13:08.813Z,11.10
2023-03-21T19:15:58.753Z,11.04
2023-03-21T19:18:56.667Z,11.04
2023-03-21T19:21:57.457Z,11.00
2023-03-21T19:24:47.201Z,10.93
2023-03-21T19:27:36.512Z,10.92
2023-03-21T19:30:29.615Z,10.97
2023-03-21T19:33:20.774Z,11.01
2023-03-21T19:36:12.931Z,11.04
2023-03-21T19:38:47.437Z,11.04
2023-03-21T19:41:17.901Z,11.00
2023-03-21T19:43:54.530Z,10.97
2023-03-21T19:46:27.863Z,10.94
2023-03-21T19:48:57.313Z,10.90
2023-03-21T19:51:29.897Z,10.86
2023-03-21T19:54:00.830Z,10.79
2023-03-21T19:56:31.405Z,10.75
2023-03-21T19:59:03.720Z,10.77
2023-03-21T20:01:33.169Z,10.85
2023-03-21T20:04:03.086Z,10.91
2023-03-21T20:06:32.010Z,10.89
2023-03-21T20:11:50.872Z,10.84
2023-03-21T20:14:20.712Z,10.80
2023-03-21T20:16:49.393Z,10.81
2023-03-21T20:19:20.640Z,10.86
2023-03-21T20:21:56.853Z,10.93
2023-03-21T20:24:28.754Z,10.92
2023-03-21T20:26:57.990Z,10.91
2023-03-21T20:32:16.449Z,10.96
2023-03-21T20:34:46.170Z,10.94
2023-03-21T20:37:14.935Z,10.88
2023-03-21T20:39:44.429Z,10.85
2023-03-21T20:42:13.013Z,10.81
2023-03-21T20:44:57.375Z,10.77
2023-03-21T20:47:28.289Z,10.76
2023-03-21T20:49:57.147Z,10.76
2023-03-21T20:52:57.462Z,10.78
2023-03-21T20:55:19.136Z,10.86
2023-03-21T20:57:48.867Z,10.92
2023-03-21T21:00:18.358Z,10.94
2023-03-21T21:02:48.986Z,10.93
2023-03-21T21:05:35.722Z,10.91
2023-03-21T21:08:05.219Z,10.90
2023-03-21T21:10:35.034Z,10.88
2023-03-21T21:13:08.030Z,10.88
2023-03-21T21:15:37.811Z,10.91
2023-03-21T21:18:07.637Z,10.91
2023-03-21T21:20:37.347Z,10.91
2023-03-21T21:23:07.062Z,10.92
2023-03-21T21:25:36.073Z,10.93
2023-03-21T21:28:09.870Z,10.94
2023-03-21T21:30:41.725Z,10.94
2023-03-21T21:33:11.239Z,10.97
2023-03-21T21:35:47.189Z,10.99
2023-03-21T21:38:20.403Z,11.03
2023-03-21T21:40:51.782Z,11.03
2023-03-21T21:43:21.379Z,10.99
2023-03-21T21:45:50.358Z,10.93
2023-03-21T21:48:19.159Z,10.87
2023-03-21T21:50:55.273Z,10.83
2023-03-21T21:53:23.691Z,10.76
2023-03-21T21:55:54.303Z,10.76
2023-03-21T21:58:23.052Z,10.74
2023-03-21T22:00:51.663Z,10.69
2023-03-21T22:03:22.544Z,10.66
2023-03-21T22:05:53.547Z,10.69
2023-03-21T22:08:23.427Z,10.76
2023-03-21T22:10:52.144Z,10.82
2023-03-21T22:13:21.128Z,10.86
2023-03-21T22:15:50.261Z,10.85
2023-03-21T22:18:19.095Z,10.82
2023-03-21T22:20:47.888Z,10.80
2023-03-21T22:23:17.138Z,10.79
2023-03-21T22:25:51.536Z,10.78
2023-03-21T22:28:22.366Z,10.76
2023-03-21T22:30:50.902Z,10.75
2023-03-21T22:33:22.675Z,10.76
2023-03-21T22:35:52.884Z,10.76
2023-03-21T22:38:24.711Z,10.74
2023-03-21T22:41:00.823Z,10.70
2023-03-21T22:43:30.529Z,10.73
2023-03-21T22:45:59.460Z,10.77
2023-03-21T22:48:31.459Z,10.80
2023-03-21T22:51:01.117Z,10.81
2023-03-21T22:53:30.449Z,10.83
2023-03-21T22:55:59.231Z,10.82
2023-03-21T22:58:28.085Z,10.86
2023-03-21T23:01:02.257Z,10.85
2023-03-21T23:03:31.421Z,10.82
2023-03-21T23:06:04.514Z,10.81
2023-03-21T23:08:33.790Z,10.83
2023-03-21T23:11:08.271Z,10.88
2023-03-21T23:13:37.197Z,10.92
2023-03-21T23:16:07.723Z,10.96
2023-03-21T23:18:37.502Z,10.98
2023-03-21T23:21:13.505Z,11.01
2023-03-21T23:23:44.397Z,11.05
2023-03-21T23:26:13.299Z,11.06
2023-03-21T23:28:42.436Z,11.08
2023-03-21T23:31:14.933Z,11.04
2023-03-21T23:33:44.741Z,10.97
2023-03-21T23:36:14.539Z,10.99
2023-03-21T23:38:44.095Z,11.02
2023-03-21T23:41:16.203Z,11.01
2023-03-21T23:43:47.242Z,11.01
2023-03-21T23:46:17.742Z,11.03
2023-03-21T23:48:47.113Z,11.02
2023-03-21T23:51:18.197Z,11.02
2023-03-21T23:53:47.290Z,11.00
2023-03-21T23:56:19.455Z,10.95
2023-03-21T23:58:50.229Z,10.94
